| time (UTC) | temp F | wind direction | speed knots | gust knots | rain 1hr in | rain 24hr in | rain mn in | humidity % | barometer mb |
| 20260510220033 | 83 | 236 | 4.3 | 7.8 | 0.00 | 0.00 | 0.00 | 78 | 1014.4 |
| 20260510214532 | 83 | 215 | 5.2 | 7.0 | 0.00 | 0.00 | 0.00 | 77 | 1014.5 |
| 20260510213029 | 84 | 215 | 3.5 | 6.1 | 0.00 | 0.00 | 0.00 | 75 | 1014.3 |
| 20260510211530 | 86 | 198 | 0.9 | 6.1 | 0.00 | 0.00 | 0.00 | 68 | 1014.5 |
| 20260510210028 | 86 | 354 | 1.7 | 4.3 | 0.00 | 0.00 | 0.00 | 67 | 1014.4 |
| 20260510204530 | 87 | 158 | 0.0 | 2.6 | 0.00 | 0.00 | 0.00 | 65 | 1014.4 |
| 20260510203032 | 87 | 0 | 0.0 | 1.7 | 0.00 | 0.00 | 0.00 | 63 | 1014.5 |
| 20260510201527 | 87 | 0 | 0.0 | 1.7 | 0.00 | 0.00 | 0.00 | 63 | 1014.4 |
| 20260510200029 | 87 | 78 | 0.0 | 4.3 | 0.00 | 0.00 | 0.00 | 62 | 1014.2 |
| 20260510194530 | 86 | 0 | 0.9 | 2.6 | 0.00 | 0.00 | 0.00 | 66 | 1014.1 |
| 20260510193030 | 87 | 113 | 0.9 | 4.3 | 0.00 | 0.00 | 0.00 | 69 | 1014.2 |
| 20260510191528 | 89 | 82 | 0.0 | 2.6 | 0.00 | 0.00 | 0.00 | 65 | 1014.1 |
| 20260510190035 | 89 | 0 | 0.0 | 1.7 | 0.00 | 0.00 | 0.00 | 64 | 1014.3 |
| 20260510184536 | 89 | 0 | 0.0 | 3.5 | 0.00 | 0.00 | 0.00 | 63 | 1014.3 |
| 20260510183030 | 89 | 318 | 3.5 | 6.1 | 0.00 | 0.00 | 0.00 | 63 | 1014.5 |
| 20260510181532 | 90 | 79 | 1.7 | 4.3 | 0.00 | 0.00 | 0.00 | 60 | 1014.5 |
| 20260510180034 | 90 | 287 | 0.9 | 4.3 | 0.00 | 0.00 | 0.00 | 64 | 1014.7 |
| 20260510174530 | 90 | 336 | 4.3 | 9.6 | 0.00 | 0.00 | 0.00 | 62 | 1014.9 |
| 20260510173033 | 90 | 203 | 2.6 | 7.8 | 0.00 | 0.00 | 0.00 | 62 | 1015.2 |
| 20260510171533 | 89 | 104 | 0.9 | 8.7 | 0.00 | 0.00 | 0.00 | 64 | 1015.3 |
| 20260510170033 | 88 | 357 | 3.5 | 7.8 | 0.00 | 0.00 | 0.00 | 65 | 1015.6 |
| 20260510164529 | 88 | 352 | 5.2 | 11.3 | 0.00 | 0.00 | 0.00 | 66 | 1015.8 |
| 20260510163032 | 86 | 284 | 2.6 | 9.6 | 0.00 | 0.00 | 0.00 | 69 | 1015.8 |
| 20260510161534 | 87 | 312 | 2.6 | 5.2 | 0.00 | 0.00 | 0.00 | 69 | 1016.0 |
| 20260510160038 | 86 | 345 | 4.3 | 6.1 | 0.00 | 0.00 | 0.00 | 71 | 1015.9 |
| 20260510154535 | 86 | 350 | 1.7 | 10.4 | 0.00 | 0.00 | 0.00 | 71 | 1015.9 |
| 20260510153030 | 86 | 354 | 2.6 | 5.2 | 0.00 | 0.00 | 0.00 | 73 | 1016.1 |
| 20260510151529 | 85 | 342 | 2.6 | 6.1 | 0.00 | 0.00 | 0.00 | 72 | 1016.0 |
| 20260510150031 | 84 | 354 | 3.5 | 9.6 | 0.00 | 0.00 | 0.00 | 76 | 1015.9 |
| 20260510144535 | 84 | 352 | 2.6 | 6.1 | 0.00 | 0.01 | 0.00 | 76 | 1015.8 |
| 20260510143033 | 83 | 356 | 2.6 | 7.8 | 0.00 | 0.01 | 0.00 | 78 | 1015.9 |
| 20260510141532 | 82 | 326 | 2.6 | 4.3 | 0.00 | 0.01 | 0.00 | 80 | 1015.9 |
| 20260510140031 | 82 | 330 | 0.0 | 1.7 | 0.00 | 0.01 | 0.00 | 82 | 1015.8 |
| 20260510134535 | 81 | 0 | 0.0 | 2.6 | 0.00 | 0.01 | 0.00 | 85 | 1015.6 |
| 20260510133032 | 80 | 342 | 0.9 | 2.6 | 0.00 | 0.01 | 0.00 | 86 | 1015.4 |
| 20260510131532 | 79 | 352 | 2.6 | 6.1 | 0.00 | 0.01 | 0.00 | 88 | 1015.4 |
| 20260510130033 | 78 | 351 | 3.5 | 6.1 | 0.00 | 0.01 | 0.00 | 90 | 1015.2 |
| 20260510124536 | 77 | 344 | 0.9 | 4.3 | 0.00 | 0.01 | 0.00 | 92 | 1015.2 |
| 20260510123032 | 77 | 343 | 0.9 | 3.5 | 0.00 | 0.01 | 0.00 | 93 | 1015.1 |
| 20260510121532 | 76 | 348 | 1.7 | 4.3 | 0.00 | 0.01 | 0.00 | 95 | 1015.0 |
| 20260510120032 | 75 | 344 | 3.5 | 5.2 | 0.00 | 0.01 | 0.00 | 96 | 1014.5 |
| 20260510114530 | 74 | 349 | 1.7 | 2.6 | 0.00 | 0.04 | 0.00 | 97 | 1014.6 |
| 20260510113037 | 74 | 0 | 0.0 | 2.6 | 0.00 | 0.04 | 0.00 | 97 | 1014.3 |
| 20260510111538 | 74 | 343 | 1.7 | 2.6 | 0.00 | 0.04 | 0.00 | 97 | 1014.1 |
| 20260510110036 | 74 | 0 | 0.0 | 0.0 | 0.00 | 0.04 | 0.00 | 96 | 1014.1 |
| 20260510104532 | 74 | 0 | 0.0 | 0.0 | 0.00 | 0.32 | 0.00 | 96 | 1013.8 |
| 20260510103034 | 74 | 338 | 1.7 | 2.6 | 0.00 | 0.32 | 0.00 | 96 | 1013.4 |
| 20260510101533 | 74 | 0 | 0.0 | 1.7 | 0.00 | 0.32 | 0.00 | 96 | 1013.4 |
| 20260510100029 | 74 | 348 | 1.7 | 4.3 | 0.00 | 0.32 | 0.00 | 96 | 1013.2 |
| 20260510094530 | 75 | 349 | 2.6 | 3.5 | 0.00 | 0.32 | 0.00 | 96 | 1013.1 |
| 20260510093055 | 75 | 0 | 0.0 | 5.2 | 0.00 | 0.32 | 0.00 | 96 | 1013.2 |
| 20260510091532 | 74 | 339 | 4.3 | 5.2 | 0.00 | 0.32 | 0.00 | 97 | 1012.8 |
| 20260510090046 | 74 | 343 | 1.7 | 2.6 | 0.00 | 0.32 | 0.00 | 97 | 1012.9 |
| 20260510084534 | 73 | 0 | 0.0 | 0.0 | 0.00 | 0.32 | 0.00 | 97 | 1012.8 |
| 20260510083032 | 74 | 0 | 0.0 | 0.0 | 0.00 | 0.32 | 0.00 | 97 | 1012.9 |
| 20260510081532 | 74 | 337 | 1.7 | 3.5 | 0.00 | 0.32 | 0.00 | 97 | 1012.9 |
| 20260510080034 | 73 | 0 | 0.0 | 0.0 | 0.00 | 0.32 | 0.00 | 97 | 1012.9 |
| 20260510074533 | 73 | 0 | 0.0 | 0.0 | 0.00 | 0.32 | 0.00 | 97 | 1013.0 |
| 20260510073032 | 73 | 0 | 0.0 | 0.0 | 0.00 | 0.32 | 0.00 | 97 | 1013.2 |
| 20260510071529 | 73 | 0 | 0.0 | 0.0 | 0.00 | 0.32 | 0.00 | 97 | 1013.2 |
| 20260510070033 | 73 | 0 | 0.0 | 0.0 | 0.00 | 0.32 | 0.00 | 96 | 1013.4 |
| 20260510064534 | 73 | 0 | 0.0 | 0.0 | 0.00 | 0.32 | 0.00 | 96 | 1013.4 |
| 20260510063031 | 73 | 0 | 0.0 | 0.0 | 0.00 | 0.32 | 0.00 | 96 | 1013.4 |
| 20260510061551 | 74 | 0 | 0.0 | 0.0 | 0.00 | 0.32 | 0.00 | 96 | 1013.6 |
| 20260510060034 | 74 | 0 | 0.0 | 0.0 | 0.00 | 0.32 | 0.00 | 96 | 1013.5 |
| 20260510054532 | 74 | 0 | 0.0 | 0.0 | 0.00 | 0.32 | 0.00 | 95 | 1013.6 |
| 20260510053030 | 75 | 0 | 0.0 | 0.0 | 0.00 | 0.32 | 0.00 | 95 | 1013.8 |
| 20260510051533 | 75 | 0 | 0.0 | 0.0 | 0.00 | 0.32 | 0.00 | 95 | 1014.3 |
| 20260510050037 | 74 | 0 | 0.0 | 0.0 | 0.00 | 0.32 | 0.00 | 94 | 1014.5 |
| 20260510044542 | 75 | 0 | 0.0 | 0.0 | 0.00 | 0.32 | 0.00 | 94 | 1014.4 |
| 20260510043032 | 75 | 0 | 0.0 | 0.0 | 0.00 | 0.32 | 0.00 | 94 | 1014.5 |
| 20260510041532 | 75 | 0 | 0.0 | 0.0 | 0.00 | 0.32 | 0.00 | 94 | 1014.4 |
| 20260510040032 | 75 | 0 | 0.0 | 0.9 | 0.00 | 0.32 | 0.00 | 93 | 1014.3 |
| 20260510034535 | 75 | 304 | 0.9 | 4.3 | 0.00 | 0.32 | 0.01 | 93 | 1014.3 |
| 20260510033032 | 75 | 259 | 1.7 | 2.6 | 0.00 | 0.32 | 0.01 | 92 | 1014.2 |
| 20260510031532 | 75 | 235 | 0.9 | 2.6 | 0.00 | 0.32 | 0.01 | 91 | 1014.2 |
| 20260510030038 | 76 | 223 | 0.0 | 1.7 | 0.00 | 0.32 | 0.01 | 90 | 1014.4 |
| 20260510024531 | 76 | 236 | 0.9 | 2.6 | 0.00 | 0.32 | 0.01 | 89 | 1014.1 |
| 20260510023030 | 76 | 234 | 1.7 | 3.5 | 0.00 | 0.32 | 0.01 | 89 | 1014.2 |
| 20260510021534 | 77 | 228 | 1.7 | 3.5 | 0.00 | 0.32 | 0.01 | 88 | 1014.1 |
| 20260510020031 | 77 | 233 | 1.7 | 4.3 | 0.00 | 0.32 | 0.01 | 88 | 1014.0 |
| 20260510014530 | 77 | 214 | 1.7 | 5.2 | 0.00 | 0.32 | 0.01 | 88 | 1014.0 |
| 20260510013030 | 77 | 217 | 2.6 | 4.3 | 0.00 | 0.32 | 0.01 | 88 | 1013.8 |
| 20260510011532 | 77 | 210 | 2.6 | 6.1 | 0.00 | 0.32 | 0.01 | 88 | 1013.7 |
| 20260510010030 | 77 | 206 | 3.5 | 4.3 | 0.00 | 0.32 | 0.01 | 88 | 1013.3 |
| 20260510004532 | 77 | 198 | 2.6 | 5.2 | 0.00 | 0.32 | 0.01 | 88 | 1013.3 |
| 20260510003031 | 77 | 218 | 2.6 | 6.1 | 0.00 | 0.32 | 0.01 | 87 | 1013.1 |
| 20260510001532 | 77 | 158 | 4.3 | 7.0 | 0.00 | 0.32 | 0.01 | 87 | 1013.0 |
| 20260510000030 | 77 | 172 | 3.5 | 8.7 | 0.00 | 0.32 | 0.01 | 87 | 1012.7 |
| 20260509234536 | 77 | 170 | 6.1 | 11.3 | 0.00 | 0.32 | 0.01 | 87 | 1012.6 |
| 20260509233029 | 78 | 209 | 7.8 | 12.2 | 0.00 | 0.32 | 0.01 | 87 | 1012.4 |
| 20260509231533 | 78 | 176 | 9.6 | 13.0 | 0.00 | 0.32 | 0.01 | 87 | 1012.3 |
| 20260509230033 | 78 | 181 | 10.4 | 15.6 | 0.00 | 0.32 | 0.01 | 86 | 1012.0 |
| 20260509224537 | 79 | 200 | 9.6 | 14.8 | 0.00 | 0.32 | 0.01 | 86 | 1011.7 |
| 20260509223034 | 80 | 158 | 10.4 | 14.8 | 0.00 | 0.32 | 0.01 | 83 | 1011.6 |
| 20260509221531 | 81 | 156 | 11.3 | 18.2 | 0.00 | 0.32 | 0.01 | 81 | 1011.5 |